Time;durP1;ratioP1;P1;durP2;ratioP2;P2;SDS_P1;SDS_P2;PMS_P1;PMS_P2;Temp;Humidity;BMP_temperature;BMP_pressure;BME280_temperature;BME280_humidity;BME280_pressure;Samples;Min_cycle;Max_cycle;Signal;HPM_P1;HPM_P2
2023/10/13 00:00:36;;;;;;;;;39.33;32.33;;;;;16.05;100.00;99710.31;6282258;20;3597533;-46
2023/10/13 00:03:18;;;;;;;;;40.00;35.00;;;;;16.13;100.00;99710.53;6318374;20;3599243;-47
2023/10/13 00:05:50;;;;;;;;;35.33;32.33;;;;;16.32;100.00;99709.84;6282808;20;3620152;-46
2023/10/13 00:08:23;;;;;;;;;35.50;33.00;;;;;16.36;100.00;99732.13;6289792;20;3611781;-45
2023/10/13 00:10:52;;;;;;;;;40.67;34.67;;;;;16.10;100.00;99720.78;6317481;20;3606561;-47
2023/10/13 00:13:21;;;;;;;;;38.33;33.67;;;;;16.10;100.00;99720.78;6289188;20;3592948;-46
2023/10/13 00:15:59;;;;;;;;;39.33;33.67;;;;;16.09;100.00;99719.03;6284657;20;3597107;-46
2023/10/13 00:18:34;;;;;;;;;37.33;32.67;;;;;15.69;100.00;99723.25;6281131;20;3604423;-45
2023/10/13 00:21:12;;;;;;;;;37.67;32.67;;;;;15.89;100.00;99720.72;6317327;20;3604457;-45
2023/10/13 00:23:52;;;;;;;;;41.33;35.00;;;;;16.00;100.00;99720.69;6281174;20;2852555;-46
2023/10/13 00:26:28;;;;;;;;;44.67;35.33;;;;;16.17;100.00;99716.59;6312339;20;3599243;-46
2023/10/13 00:31:40;;;;;;;;;43.33;35.67;;;;;15.99;100.00;99713.56;6316974;20;3606639;-45
2023/10/13 00:34:14;;;;;;;;;35.67;33.00;;;;;16.41;100.00;99725.31;6280290;20;3600236;-46
2023/10/13 00:37:12;;;;;;;;;37.67;31.33;;;;;16.30;100.00;99728.09;6311285;20;2845285;-45
2023/10/13 00:39:45;;;;;;;;;40.67;35.00;;;;;16.48;99.84;99722.06;6317166;20;3607548;-45
2023/10/13 00:42:19;;;;;;;;;41.33;34.33;;;;;16.52;99.00;99721.69;6286061;20;3603860;-45
2023/10/13 00:44:48;;;;;;;;;39.00;32.67;;;;;16.60;98.79;99724.59;6282082;20;3576303;-46
2023/10/13 00:47:37;;;;;;;;;36.33;32.00;;;;;16.43;98.70;99723.34;6282291;20;3610686;-45
2023/10/13 00:50:14;;;;;;;;;36.00;30.67;;;;;16.12;100.00;99721.53;6279473;20;3611736;-47
2023/10/13 00:52:46;;;;;;;;;32.00;31.00;;;;;16.19;100.00;99714.56;6314491;20;3598285;-46
2023/10/13 00:55:17;;;;;;;;;37.33;32.00;;;;;16.35;100.00;99709.59;6284688;20;3604534;-45
2023/10/13 00:57:47;;;;;;;;;44.00;35.00;;;;;16.33;100.00;99710.72;6282706;20;3606519;-45
2023/10/13 01:00:24;;;;;;;;;37.67;33.00;;;;;16.29;100.00;99715.53;6275271;20;3598192;-46
2023/10/13 01:02:55;;;;;;;;;36.00;32.33;;;;;16.40;100.00;99717.31;6319557;20;3592012;-45
2023/10/13 01:05:26;;;;;;;;;39.67;33.33;;;;;16.21;100.00;99707.19;6284983;20;3597165;-45
2023/10/13 01:07:56;;;;;;;;;38.33;33.00;;;;;16.34;100.00;99720.56;6282218;20;2859255;-45
2023/10/13 01:10:32;;;;;;;;;43.00;34.33;;;;;15.97;100.00;99710.13;6311236;20;3597201;-45
2023/10/13 01:13:04;;;;;;;;;38.33;32.67;;;;;16.14;100.00;99716.81;6284233;20;3605453;-48
2023/10/13 01:15:33;;;;;;;;;41.33;34.00;;;;;16.12;100.00;99718.81;6282597;20;3584782;-46
2023/10/13 01:18:14;;;;;;;;;40.00;34.67;;;;;16.01;100.00;99720.56;6278423;20;3620196;-45
2023/10/13 01:20:45;;;;;;;;;45.00;35.00;;;;;16.24;100.00;99717.75;6315958;20;3614869;-46
2023/10/13 01:23:18;;;;;;;;;45.50;38.00;;;;;16.17;100.00;99716.59;6279758;20;2849354;-46
2023/10/13 01:25:48;;;;;;;;;43.67;34.67;;;;;16.21;100.00;99708.03;6276019;20;3599296;-45
2023/10/13 01:28:17;;;;;;;;;39.00;34.33;;;;;16.34;100.00;99713.28;6315332;20;3587771;-45
2023/10/13 01:30:53;;;;;;;;;40.67;33.00;;;;;16.52;100.00;99716.28;6281808;20;3603408;-45
2023/10/13 01:33:26;;;;;;;;;43.33;37.33;;;;;16.36;100.00;99716.72;6284799;20;3575278;-52
2023/10/13 01:35:58;;;;;;;;;46.33;38.00;;;;;16.19;100.00;99718.16;6277524;20;3588792;-48
2023/10/13 01:38:33;;;;;;;;;42.75;34.75;;;;;16.18;100.00;99705.59;6315119;20;3616923;-49
2023/10/13 01:41:05;;;;;;;;;40.00;35.00;;;;;16.36;100.00;99710.44;6313404;20;3607556;-50
2023/10/13 01:43:34;;;;;;;;;43.33;37.33;;;;;16.51;100.00;99719.09;6284860;20;3568116;-46
2023/10/13 01:46:04;;;;;;;;;45.50;38.00;;;;;16.39;100.00;99708.31;6276251;20;2848335;-45
2023/10/13 01:48:38;;;;;;;;;46.00;38.00;;;;;16.35;100.00;99709.59;6309965;20;2839975;-48
2023/10/13 01:51:11;;;;;;;;;39.00;33.33;;;;;16.47;100.00;99718.50;6279470;20;3603394;-45
2023/10/13 01:53:41;;;;;;;;;42.67;35.00;;;;;16.50;100.00;99723.66;6315680;20;3598159;-45
2023/10/13 01:56:11;;;;;;;;;43.67;37.00;;;;;16.52;100.00;99726.25;6277863;20;2844141;-48
2023/10/13 01:58:42;;;;;;;;;43.67;34.67;;;;;16.50;100.00;99723.66;6313015;20;3595066;-45
2023/10/13 02:01:13;;;;;;;;;46.00;38.00;;;;;16.54;100.00;99713.44;6282073;20;3591931;-44
2023/10/13 02:03:46;;;;;;;;;49.00;38.00;;;;;16.41;100.00;99706.34;6318028;20;3605578;-47
2023/10/13 02:06:23;;;;;;;;;44.33;36.33;;;;;16.38;100.00;99725.59;6283848;20;2861834;-45
2023/10/13 02:08:57;;;;;;;;;46.33;37.33;;;;;16.39;100.00;99732.72;6320389;20;3589878;-45
2023/10/13 02:11:26;;;;;;;;;44.33;36.00;;;;;16.42;100.00;99721.63;6283470;20;3587776;-46
2023/10/13 02:13:56;;;;;;;;;45.00;37.00;;;;;16.42;100.00;99737.03;6317222;20;3596094;-45
2023/10/13 02:16:25;;;;;;;;;44.67;37.00;;;;;16.48;100.00;99727.50;6285315;20;3589853;-45
2023/10/13 02:18:57;;;;;;;;;44.00;36.33;;;;;16.52;100.00;99729.81;6282369;20;3611730;-45
2023/10/13 02:21:31;;;;;;;;;41.67;36.00;;;;;16.40;100.00;99722.72;6313753;20;3592975;-45
2023/10/13 02:24:03;;;;;;;;;40.67;35.33;;;;;16.24;100.00;99728.59;6281471;20;2848257;-47
2023/10/13 02:26:38;;;;;;;;;40.00;35.33;;;;;16.05;100.00;99721.16;6315695;20;3599282;-45
2023/10/13 02:29:08;;;;;;;;;44.33;36.67;;;;;16.05;100.00;99723.03;6286014;20;2859726;-46
2023/10/13 02:31:40;;;;;;;;;49.00;39.33;;;;;16.32;100.00;99730.66;6317819;20;3603390;-45
2023/10/13 02:34:09;;;;;;;;;48.67;39.00;;;;;16.26;100.00;99731.19;6286309;20;3600260;-44
2023/10/13 02:36:49;;;;;;;;;45.00;38.00;;;;;16.11;100.00;99727.91;6283677;20;2835704;-45
2023/10/13 02:39:26;;;;;;;;;49.00;40.00;;;;;16.21;100.00;99728.84;6282102;20;2741940;-44
2023/10/13 02:41:55;;;;;;;;;48.67;39.33;;;;;16.06;100.00;99730.16;6315434;20;3592972;-45
2023/10/13 02:44:30;;;;;;;;;44.00;37.00;;;;;16.21;100.00;99721.59;6284023;20;2818039;-45
2023/10/13 02:46:59;;;;;;;;;46.50;39.00;;;;;16.08;100.00;99729.03;6284092;20;2850420;-45
2023/10/13 02:49:33;;;;;;;;;47.33;38.33;;;;;16.13;100.00;99726.78;6284728;20;3587812;-44
2023/10/13 02:52:08;;;;;;;;;49.33;40.33;;;;;15.89;100.00;99715.31;6280707;20;3608635;-44
2023/10/13 02:54:46;;;;;;;;;48.33;39.67;;;;;15.64;100.00;99728.16;6318846;20;3591325;-45
2023/10/13 02:57:17;;;;;;;;;50.33;37.67;;;;;15.68;100.00;99728.75;6282417;20;3615901;-46
2023/10/13 02:59:46;;;;;;;;;41.67;35.00;;;;;15.85;100.00;99728.25;6316073;20;3610085;-45
2023/10/13 03:02:27;;;;;;;;;45.33;38.33;;;;;15.81;100.00;99732.19;6277758;20;2851386;-47
2023/10/13 03:04:59;;;;;;;;;52.67;41.33;;;;;15.86;100.00;99735.38;6316871;20;3615957;-46
2023/10/13 03:07:29;;;;;;;;;47.00;39.00;;;;;15.82;100.00;99736.59;6283165;20;3584618;-45
2023/10/13 03:10:01;;;;;;;;;47.33;38.33;;;;;16.07;100.00;99740.00;6282765;20;2844036;-45
2023/10/13 03:12:33;;;;;;;;;47.67;39.00;;;;;15.86;100.00;99751.63;6315471;20;3578518;-45
2023/10/13 03:15:17;;;;;;;;;47.67;39.67;;;;;16.05;100.00;99750.97;6280401;20;2852396;-45
2023/10/13 03:17:47;;;;;;;;;47.00;38.00;;;;;16.18;100.00;99756.22;6316560;20;3593003;-44
2023/10/13 03:20:24;;;;;;;;;49.33;39.33;;;;;16.30;100.00;99760.63;6277996;20;2859760;-44
2023/10/13 03:22:55;;;;;;;;;38.33;34.33;;;;;15.94;100.00;99769.94;6316254;20;3591952;-45
2023/10/13 03:25:29;;;;;;;;;43.00;34.67;;;;;15.69;100.00;99766.56;6280929;20;2845207;-44
2023/10/13 03:30:41;;;;;;;;;39.33;33.00;;;;;15.62;100.00;99759.03;6283744;20;3592911;-44
2023/10/13 03:33:12;;;;;;;;;36.33;32.67;;;;;15.62;100.00;99756.31;6282744;20;2860690;-44
2023/10/13 03:35:42;;;;;;;;;37.00;31.67;;;;;15.29;100.00;99749.94;6309354;20;2859802;-45
2023/10/13 03:38:16;;;;;;;;;36.67;32.67;;;;;15.33;100.00;99746.00;6312251;20;3603397;-45
2023/10/13 03:40:56;;;;;;;;;40.67;35.00;;;;;15.25;100.00;99753.88;6282117;20;3598166;-48
2023/10/13 03:43:28;;;;;;;;;36.33;33.33;;;;;15.18;100.00;99749.94;6281764;20;3606672;-44
2023/10/13 03:46:01;;;;;;;;;41.67;33.00;;;;;15.45;100.00;99763.94;6282627;20;3610683;-44
2023/10/13 03:48:31;;;;;;;;;38.67;35.00;;;;;15.69;100.00;99757.56;6286910;20;3607565;-44
2023/10/13 03:51:10;;;;;;;;;36.67;33.67;;;;;15.95;100.00;99771.66;6282414;20;3595010;-45
2023/10/13 03:53:54;;;;;;;;;42.33;35.00;;;;;16.16;100.00;99769.03;6279901;20;3611728;-44
2023/10/13 03:56:28;;;;;;;;;39.67;33.00;;;;;15.99;100.00;99778.56;6314696;20;3601337;-46
2023/10/13 03:59:05;;;;;;;;;44.33;36.00;;;;;15.97;100.00;99780.53;6159443;20;3600245;-45
2023/10/13 04:01:45;;;;;;;;;42.00;35.00;;;;;15.74;100.00;99763.47;6315787;20;3609678;-49
2023/10/13 04:14:21;;;;;;;;;42.67;35.00;;;;;15.64;100.00;99751.63;6281483;20;3616959;-45
2023/10/13 04:15:17;;;;;;;;;43.67;36.67;;;;;15.62;100.00;99746.34;6316299;20;3610746;-44
2023/10/13 04:17:50;;;;;;;;;134.11;120.00;;;;;15.39;100.00;99726.56;6276444;20;3733624;-44
2023/10/13 04:20:32;;;;;;;;;128.11;113.11;;;;;15.69;100.00;99714.25;6271642;20;3724242;-49
2023/10/13 04:25:38;;;;;;;;;86.75;78.50;;;;;15.26;100.00;99715.00;6278867;20;4408593;-46
2023/10/13 04:33:52;;;;;;;;;54.50;44.00;;;;;15.36;100.00;99710.59;6316220;20;3545230;-47
2023/10/13 04:41:42;;;;;;;;;56.00;42.00;;;;;15.48;100.00;99719.53;6315556;20;3627464;-51
2023/10/13 05:00:55;;;;;;;;;37.67;32.33;;;;;15.01;100.00;99708.00;6274758;20;3575296;-45
2023/10/13 05:45:36;;;;;;;;;45.00;38.00;;;;;15.41;100.00;99775.16;6278282;20;2861768;-46
2023/10/13 05:48:13;;;;;;;;;64.00;52.50;;;;;15.73;100.00;99788.81;6313475;20;3561879;-46
2023/10/13 05:50:57;;;;;;;;;63.00;48.33;;;;;15.41;100.00;99789.53;6277064;20;3624334;-46
2023/10/13 06:29:45;;;;;;;;;57.00;46.00;;;;;15.97;100.00;99827.41;6283403;20;3616915;-49
2023/10/13 06:32:16;;;;;;;;;50.00;41.33;;;;;16.20;100.00;99832.81;6277978;20;2871325;-47
2023/10/13 06:34:45;;;;;;;;;44.00;37.00;;;;;16.20;100.00;99835.50;6310735;20;3587894;-48
2023/10/13 06:37:22;;;;;;;;;52.33;40.67;;;;;16.16;100.00;99825.91;6272286;20;3608585;-47
2023/10/13 06:39:56;;;;;;;;;50.67;41.00;;;;;15.94;100.00;99830.38;6313897;20;3590915;-46
2023/10/13 06:42:29;;;;;;;;;50.67;41.00;;;;;16.44;100.00;99827.19;6275415;20;3600262;-47
2023/10/13 06:45:00;;;;;;;;;51.33;42.67;;;;;16.80;100.00;99828.69;6313401;20;3594053;-46
2023/10/13 06:47:28;;;;;;;;;45.00;37.50;;;;;16.86;100.00;99839.00;6277877;20;2841016;-47
2023/10/13 06:49:59;;;;;;;;;45.33;36.00;;;;;16.68;100.00;99846.81;6285961;20;3593024;-48
2023/10/13 06:52:29;;;;;;;;;42.00;35.33;;;;;16.74;100.00;99853.56;6286073;20;3608614;-46
2023/10/13 06:55:04;;;;;;;;;47.33;37.33;;;;;16.72;100.00;99863.69;6318217;20;3610788;-46
2023/10/13 06:57:35;;;;;;;;;37.33;34.00;;;;;16.89;100.00;99871.28;6288233;20;3603895;-46
2023/10/13 07:00:08;;;;;;;;;43.33;35.33;;;;;16.98;100.00;99879.63;6285124;20;3581532;-46
2023/10/13 07:02:37;;;;;;;;;43.00;35.00;;;;;17.08;100.00;99877.84;6281850;20;3619154;-47
2023/10/13 07:05:11;;;;;;;;;42.50;34.50;;;;;17.23;100.00;99883.81;6319651;20;3617049;-46
2023/10/13 07:07:41;;;;;;;;;40.00;35.67;;;;;17.11;100.00;99885.72;6318116;20;3607522;-46
2023/10/13 07:10:12;;;;;;;;;41.00;32.67;;;;;16.99;100.00;99881.34;6284607;20;3609739;-49
2023/10/13 07:12:44;;;;;;;;;35.00;33.00;;;;;17.19;100.00;99893.19;6319102;20;3604621;-49
2023/10/13 07:17:55;;;;;;;;;39.67;33.67;;;;;17.16;100.00;99904.31;6284044;20;3601322;-46
2023/10/13 07:23:06;;;;;;;;;37.00;33.33;;;;;16.99;100.00;99912.03;6283762;20;3597286;-46
2023/10/13 07:25:38;;;;;;;;;44.67;35.00;;;;;17.24;100.00;99908.09;6284854;20;3585752;-46
2023/10/13 07:28:08;;;;;;;;;45.00;36.00;;;;;17.18;100.00;99908.63;6285320;20;2843012;-46
2023/10/13 07:30:42;;;;;;;;;41.33;34.67;;;;;17.38;100.00;99906.91;6283075;20;3608637;-44
2023/10/13 07:33:13;;;;;;;;;39.00;35.33;;;;;17.28;100.00;99901.41;6319808;20;3598193;-44
2023/10/13 07:35:42;;;;;;;;;39.33;34.00;;;;;17.50;100.00;99913.13;6286169;20;3594022;-45
2023/10/13 07:38:13;;;;;;;;;44.67;35.33;;;;;17.40;100.00;99907.63;6284717;20;3601415;-45
2023/10/13 07:40:50;;;;;;;;;45.00;34.50;;;;;17.41;100.00;99917.50;6320615;20;3625369;-50
2023/10/13 07:43:22;;;;;;;;;47.67;39.00;;;;;17.71;100.00;99913.97;6312390;20;3595018;-48
2023/10/13 07:45:58;;;;;;;;;47.33;38.33;;;;;17.58;100.00;99932.31;6283144;20;3593098;-48
2023/10/13 07:48:27;;;;;;;;;48.00;41.67;;;;;17.50;100.00;99929.41;6319321;20;3586824;-50
2023/10/13 07:51:11;;;;;;;;;47.67;40.00;;;;;17.41;100.00;99925.66;6283329;20;3588846;-45
2023/10/13 07:53:43;;;;;;;;;44.67;38.67;;;;;17.50;100.00;99918.56;6318591;20;3580495;-47
2023/10/13 07:56:12;;;;;;;;;50.33;39.67;;;;;17.31;100.00;99903.84;6282684;20;3609622;-49
2023/10/13 07:59:01;;;;;;;;;102.00;67.50;;;;;17.47;100.00;99886.25;6315508;20;4435686;-48
2023/10/13 08:01:34;;;;;;;;;52.00;40.33;;;;;17.31;100.00;99876.72;6280182;20;3614830;-44
2023/10/13 08:04:11;;;;;;;;;51.00;40.33;;;;;17.64;100.00;99872.06;6318546;20;3595174;-45
2023/10/13 08:06:42;;;;;;;;;46.33;38.00;;;;;17.53;100.00;99874.84;6283818;20;3597302;-46
2023/10/13 08:09:30;;;;;;;;;49.67;40.33;;;;;17.70;100.00;99885.09;6319786;20;3601412;-49
2023/10/13 08:12:00;;;;;;;;;48.33;39.33;;;;;17.71;100.00;99908.53;6286928;20;3602473;-50
2023/10/13 08:14:33;;;;;;;;;50.00;41.33;;;;;17.68;100.00;99900.66;6283240;20;2853557;-45
2023/10/13 08:17:11;;;;;;;;;51.67;40.67;;;;;17.83;100.00;99889.50;6317892;20;3611751;-45
2023/10/13 08:19:41;;;;;;;;;45.00;38.00;;;;;18.30;100.00;99887.06;6283273;20;3599264;-47
2023/10/13 08:32:56;;;;;;;;;44.33;36.00;;;;;18.59;100.00;99907.03;6317561;20;3620058;-46
2023/10/13 08:38:04;;;;;;;;;43.00;36.00;;;;;18.60;100.00;99908.75;6284397;20;3605461;-45
2023/10/13 08:43:50;;;;;;;;;46.33;37.67;;;;;18.70;100.00;99902.47;6284157;20;3589886;-46
2023/10/13 08:46:26;;;;;;;;;49.67;40.67;;;;;18.83;100.00;99898.50;6283667;20;3609732;-51
2023/10/13 08:49:06;;;;;;;;;52.00;41.67;;;;;18.95;99.15;99904.66;6319431;20;3609619;-48
2023/10/13 08:51:43;;;;;;;;;46.67;39.00;;;;;19.10;97.22;99896.06;6283709;20;3596214;-49
2023/10/13 08:57:34;;;;;;;;;45.67;39.00;;;;;19.29;95.73;99898.75;6277510;20;2840947;-46
2023/10/13 09:06:06;;;;;;;;;47.67;39.67;;;;;19.78;93.70;99898.69;6312617;20;3601287;-46
2023/10/13 09:08:35;;;;;;;;;49.00;40.67;;;;;19.77;93.10;99906.00;6282036;20;3612757;-49
2023/10/13 09:11:14;;;;;;;;;48.00;39.67;;;;;19.76;92.65;99906.16;6286442;20;3601396;-46
2023/10/13 09:13:46;;;;;;;;;46.33;37.67;;;;;19.96;91.41;99907.81;6281434;20;3613820;-46
2023/10/13 09:16:21;;;;;;;;;49.00;40.00;;;;;19.82;92.40;99917.31;6286914;20;3585790;-47
2023/10/13 09:18:52;;;;;;;;;45.67;37.00;;;;;19.78;92.57;99909.59;6285593;20;3586717;-49
2023/10/13 09:21:47;;;;;;;;;42.00;34.67;;;;;19.68;93.52;99909.63;6287073;20;3596187;-46
2023/10/13 09:24:21;;;;;;;;;44.33;35.00;;;;;19.88;91.89;99911.28;6282343;20;3612795;-48
2023/10/13 09:26:55;;;;;;;;;33.33;31.00;;;;;20.03;91.69;99918.97;6284960;20;3603379;-46
2023/10/13 09:29:25;;;;;;;;;39.67;34.67;;;;;20.36;91.06;99915.66;6288157;20;3601312;-49
2023/10/13 09:32:11;;;;;;;;;41.67;34.00;;;;;20.25;91.05;99909.53;6286964;20;3613835;-47
2023/10/13 09:34:44;;;;;;;;;42.00;35.25;;;;;19.86;91.65;99912.44;6283755;20;3615923;-46
2023/10/13 09:37:20;;;;;;;;;43.67;36.00;;;;;19.78;91.64;99910.44;6312735;20;3601392;-47
2023/10/13 09:39:53;;;;;;;;;45.00;35.67;;;;;19.89;91.34;99904.81;6283504;20;3617959;-50
2023/10/13 09:42:26;;;;;;;;;45.25;36.25;;;;;20.37;91.31;99911.06;6282785;20;3626909;-47
2023/10/13 09:44:59;;;;;;;;;44.33;36.67;;;;;20.63;90.31;99916.69;6317582;20;3590884;-50
2023/10/13 09:47:30;;;;;;;;;39.33;35.33;;;;;20.47;88.91;99911.00;6276971;20;3614884;-47
2023/10/13 09:50:05;;;;;;;;;42.33;35.00;;;;;21.05;88.86;99910.63;6318213;20;3608618;-50
2023/10/13 09:52:37;;;;;;;;;45.33;35.67;;;;;21.42;87.59;99918.66;6283450;20;3579401;-46
2023/10/13 09:55:29;;;;;;;;;42.00;35.00;;;;;20.77;89.20;99913.44;6285555;20;3602609;-52
2023/10/13 09:58:18;;;;;;;;;43.00;35.00;;;;;21.12;85.93;99903.53;6283454;20;3396111;-46
2023/10/13 10:00:58;;;;;;;;;41.00;34.67;;;;;20.88;86.28;99909.63;6314634;20;3592974;-46
2023/10/13 10:03:30;;;;;;;;;37.33;32.33;;;;;20.65;88.21;99903.75;6281862;20;3596299;-47
2023/10/13 10:06:14;;;;;;;;;36.67;32.67;;;;;21.05;87.24;99894.25;6283539;20;3589965;-47
2023/10/13 10:08:56;;;;;;;;;36.67;31.33;;;;;21.45;84.87;99892.88;6284893;20;3608605;-46
2023/10/13 10:11:40;;;;;;;;;33.00;29.00;;;;;21.61;82.72;99887.53;6280598;20;3583781;-46
2023/10/13 10:15:11;;;;;;;;;36.67;32.00;;;;;22.38;80.84;99893.09;6278048;20;3608720;-50
2023/10/13 10:17:45;;;;;;;;;35.00;31.67;;;;;22.14;82.31;99894.69;6281244;20;3600369;-47
2023/10/13 10:20:20;;;;;;;;;28.00;28.00;;;;;22.83;78.37;99897.31;6271257;20;3585672;-51
2023/10/13 10:22:59;;;;;;;;;29.67;27.00;;;;;23.06;77.60;99885.72;6278855;20;3595083;-46
2023/10/13 10:25:35;;;;;;;;;30.00;27.00;;;;;22.68;78.52;99883.44;6246108;20;3580695;-48
2023/10/13 10:28:09;;;;;;;;;31.00;28.00;;;;;23.39;76.94;99883.84;6286275;20;3583576;-47
2023/10/13 10:30:39;;;;;;;;;25.75;24.25;;;;;23.84;73.82;99877.81;6288382;20;3595208;-47
2023/10/13 10:33:15;;;;;;;;;29.33;28.33;;;;;23.23;76.37;99862.81;6316386;20;3583627;-46
2023/10/13 10:35:46;;;;;;;;;23.33;23.33;;;;;23.86;75.50;99862.03;6318049;20;3591927;-47
2023/10/13 10:38:24;;;;;;;;;27.33;26.00;;;;;23.38;74.77;99855.59;6286331;20;3589926;-47
2023/10/13 10:41:05;;;;;;;;;26.00;26.00;;;;;23.50;75.17;99847.88;6286852;20;3597343;-45
2023/10/13 10:43:42;;;;;;;;;27.67;27.00;;;;;23.73;74.57;99845.28;6284392;20;3585692;-46
2023/10/13 10:46:28;;;;;;;;;29.00;27.33;;;;;24.16;73.02;99843.06;6316776;20;3581602;-46
2023/10/13 10:49:08;;;;;;;;;26.75;25.75;;;;;23.84;71.39;99846.78;6289267;20;3604436;-48
2023/10/13 10:51:45;;;;;;;;;32.00;29.25;;;;;24.29;70.63;99846.06;6320130;20;3606580;-46
2023/10/13 10:54:20;;;;;;;;;29.67;27.00;;;;;24.63;69.54;99847.63;6311293;20;3598180;-47
2023/10/13 10:56:52;;;;;;;;;29.33;27.33;;;;;24.86;69.96;99838.56;6280540;20;3580510;-46
2023/10/13 10:59:25;;;;;;;;;28.50;27.25;;;;;24.54;69.29;99848.75;6282269;20;3593193;-51
2023/10/13 11:01:54;;;;;;;;;25.00;24.00;;;;;24.46;69.78;99840.53;6314522;20;3597143;-47
2023/10/13 11:06:56;;;;;;;;;23.00;19.67;;;;;24.66;67.47;99844.53;6284512;20;3575273;-47
2023/10/13 11:12:15;;;;;;;;;24.67;23.33;;;;;24.36;67.38;99846.22;6286133;20;3596187;-47
2023/10/13 11:14:50;;;;;;;;;10.00;8.33;;;;;24.61;66.17;99848.84;6285082;20;2767116;-45
2023/10/13 11:17:42;;;;;;;;;21.00;20.00;;;;;24.44;67.08;99843.47;6316779;20;3571163;-46
2023/10/13 11:20:17;;;;;;;;;22.00;18.67;;;;;24.68;66.28;99839.72;6288042;20;3574281;-45
2023/10/13 11:22:50;;;;;;;;;24.33;20.00;;;;;24.52;66.75;99835.19;6284273;20;3566477;-47
2023/10/13 11:25:34;;;;;;;;;25.67;22.00;;;;;24.68;66.10;99839.72;6285144;20;1896338;-47
2023/10/13 11:28:20;;;;;;;;;31.00;25.57;;;;;24.60;66.03;99831.53;6329788;20;3612767;-46
2023/10/13 11:30:50;;;;;;;;;27.33;25.00;;;;;24.89;65.10;99829.97;6283838;20;3586791;-48
2023/10/13 11:33:29;;;;;;;;;22.67;22.00;;;;;25.00;64.95;99824.03;6282951;20;3589896;-45
2023/10/13 11:36:03;;;;;;;;;23.00;22.67;;;;;24.80;65.14;99820.06;6286154;20;3588797;-45
2023/10/13 11:51:51;;;;;;;;;19.33;18.33;;;;;24.62;65.26;99815.75;6286825;20;3575256;-46
2023/10/13 11:54:23;;;;;;;;;24.00;21.67;;;;;24.68;66.42;99812.25;6283774;20;3572220;-51
2023/10/13 11:56:53;;;;;;;;;23.75;22.75;;;;;24.73;65.14;99815.31;6281080;20;3596141;-45
2023/10/13 11:59:27;;;;;;;;;21.33;20.67;;;;;24.92;62.74;99819.44;6313118;20;3564872;-49
2023/10/13 12:04:51;;;;;;;;;24.00;22.67;;;;;24.65;64.71;99807.13;6288715;20;3583609;-47
2023/10/13 12:07:45;;;;;;;;;24.67;20.67;;;;;24.81;65.14;99808.06;6286352;20;3576333;-47
2023/10/13 12:10:33;;;;;;;;;23.00;21.50;;;;;24.82;65.50;99796.88;6285773;20;3455533;-47
2023/10/13 12:13:05;;;;;;;;;27.00;25.00;;;;;24.64;66.10;99802.66;6315392;20;3598316;-49
2023/10/13 12:15:46;;;;;;;;;15.33;14.00;;;;;24.57;65.93;99803.59;6316605;20;3548200;-46
2023/10/13 12:18:19;;;;;;;;;20.33;19.33;;;;;24.68;65.93;99808.66;6311973;20;3565948;-45
2023/10/13 12:20:49;;;;;;;;;25.33;22.00;;;;;24.73;65.50;99804.31;6313781;20;2508643;-45
2023/10/13 12:23:31;;;;;;;;;24.57;22.57;;;;;24.92;65.15;99802.13;6334441;20;3588838;-47
2023/10/13 12:26:06;;;;;;;;;28.67;27.67;;;;;24.80;66.16;99807.16;6311207;20;3602376;-46
2023/10/13 12:28:41;;;;;;;;;23.67;23.67;;;;;25.04;64.68;99797.91;6282965;20;3589868;-47
2023/10/13 12:31:11;;;;;;;;;21.67;21.33;;;;;25.01;63.72;99792.75;6284503;20;3578956;-52
2023/10/13 12:33:41;;;;;;;;;25.00;23.00;;;;;25.34;63.98;99795.22;6285228;20;3587785;-47
2023/10/13 12:36:14;;;;;;;;;21.33;19.00;;;;;25.26;63.12;99798.91;6284561;20;3581549;-46
2023/10/13 12:52:31;;;;;;;;;22.33;19.00;;;;;25.15;61.06;99781.00;6284178;20;3583748;-46
2023/10/13 12:55:06;;;;;;;;;19.67;19.67;;;;;25.24;60.70;99787.25;6286030;20;3577422;-48
2023/10/13 12:57:42;;;;;;;;;20.00;19.00;;;;;25.25;61.91;99782.59;6286400;20;3574221;-48
2023/10/13 13:00:25;;;;;;;;;22.67;21.00;;;;;25.27;62.34;99772.28;6281586;20;3576437;-49
2023/10/13 13:02:55;;;;;;;;;21.00;18.00;;;;;25.12;61.95;99775.84;6286705;20;3580445;-51
2023/10/13 13:05:28;;;;;;;;;18.33;15.33;;;;;25.03;61.30;99767.84;6282463;20;3556515;-45
2023/10/13 13:07:57;;;;;;;;;20.33;19.67;;;;;25.35;61.88;99763.94;6281843;20;3579447;-47
2023/10/13 13:10:34;;;;;;;;;21.33;20.33;;;;;25.23;62.26;99760.81;6283692;20;3568058;-45
2023/10/13 13:13:05;;;;;;;;;19.00;17.50;;;;;25.09;62.58;99759.72;6281812;20;2721186;-44
2023/10/13 13:15:35;;;;;;;;;26.67;18.33;;;;;25.52;62.27;99768.22;6311643;20;3597127;-47
2023/10/13 13:18:11;;;;;;;;;18.67;17.67;;;;;25.25;61.49;99760.59;6285507;20;3572155;-47
2023/10/13 13:20:52;;;;;;;;;23.00;20.00;;;;;25.46;60.90;99752.50;6286286;20;3577486;-49
2023/10/13 13:23:31;;;;;;;;;19.33;18.00;;;;;25.55;59.35;99753.25;6285260;20;3579561;-47
2023/10/13 13:25:59;;;;;;;;;23.00;18.33;;;;;25.23;59.91;99746.22;6285011;20;3571044;-45
2023/10/13 13:28:28;;;;;;;;;22.50;17.00;;;;;25.39;58.73;99751.53;6281111;20;2829407;-44
2023/10/13 13:30:58;;;;;;;;;21.33;16.00;;;;;25.30;58.23;99745.25;6282033;20;3556501;-45
2023/10/13 13:33:33;;;;;;;;;26.00;20.33;;;;;25.26;58.54;99743.09;6312669;20;3586727;-46
2023/10/13 13:36:04;;;;;;;;;18.00;16.00;;;;;25.08;59.17;99747.00;6312564;20;3568061;-46
2023/10/13 13:38:33;;;;;;;;;21.00;18.00;;;;;25.06;59.52;99746.34;6283193;20;3583675;-45
2023/10/13 13:41:03;;;;;;;;;16.33;16.33;;;;;25.07;59.22;99742.56;6314996;20;3556731;-47
2023/10/13 13:43:38;;;;;;;;;17.67;15.67;;;;;24.97;58.18;99744.72;6283007;20;3564050;-47
2023/10/13 13:46:10;;;;;;;;;17.00;16.00;;;;;24.85;59.01;99747.03;6284010;20;3569029;-46
2023/10/13 13:48:41;;;;;;;;;22.33;17.33;;;;;24.97;58.63;99753.81;6283672;20;3569046;-47
2023/10/13 13:51:14;;;;;;;;;20.00;17.00;;;;;24.95;58.61;99742.16;6286615;20;3579611;-47
2023/10/13 13:53:45;;;;;;;;;13.33;12.00;;;;;25.24;58.37;99740.53;6284122;20;3506561;-47
2023/10/13 13:56:16;;;;;;;;;19.33;16.00;;;;;25.27;57.92;99739.28;6313716;20;3577369;-45
2023/10/13 13:58:50;;;;;;;;;15.33;14.33;;;;;25.33;56.60;99735.78;6316434;20;2483745;-46
2023/10/13 14:01:25;;;;;;;;;13.67;13.00;;;;;25.31;55.69;99725.00;6320366;20;3539824;-48
2023/10/13 14:04:02;;;;;;;;;19.33;14.33;;;;;25.57;55.17;99740.16;6318285;20;3551421;-51
2023/10/13 14:06:32;;;;;;;;;19.00;13.67;;;;;25.52;56.28;99731.63;6287278;20;3533763;-46
2023/10/13 14:09:04;;;;;;;;;14.00;13.00;;;;;25.06;56.17;99731.75;6316799;20;3534785;-46
2023/10/13 14:17:02;;;;;;;;;14.00;14.00;;;;;25.25;54.81;99724.88;6287806;20;3539348;-46
2023/10/13 14:19:31;;;;;;;;;14.00;14.00;;;;;25.28;55.12;99724.53;6315081;20;2798273;-46
2023/10/13 14:22:06;;;;;;;;;17.00;14.00;;;;;25.21;54.79;99727.16;6285802;20;3545768;-50
2023/10/13 14:24:43;;;;;;;;;19.67;15.00;;;;;25.11;55.00;99719.16;6286525;20;3577558;-47
2023/10/13 14:27:14;;;;;;;;;18.33;17.00;;;;;25.19;55.77;99721.84;6316203;20;3571242;-46
2023/10/13 14:29:43;;;;;;;;;18.50;17.00;;;;;25.28;54.34;99721.78;6288058;20;2830638;-45
2023/10/13 14:32:17;;;;;;;;;12.33;12.00;;;;;25.34;52.99;99716.38;6281163;20;2483671;-48
2023/10/13 14:34:53;;;;;;;;;13.50;13.50;;;;;25.46;53.31;99714.00;6314958;20;2802503;-46
2023/10/13 14:37:26;;;;;;;;;15.67;12.67;;;;;25.55;52.79;99709.25;6282238;20;2496170;-45
2023/10/13 14:39:57;;;;;;;;;18.00;14.00;;;;;25.25;53.22;99708.41;6315847;20;2811834;-45
2023/10/13 14:42:28;;;;;;;;;15.00;11.67;;;;;25.33;52.13;99711.94;6283554;20;3519344;-48